Latest Weather Observations for Macquarie Island

IDT60801

Issued at 5:35 pm EST Wednesday 17 September 2014 (issued every 30 minutes, with the page automatically refreshed every 10 minutes)

About weather observations | Map of weather stations | Latest weather observations for TAS | Other Formats
Station Details ID: 300004 Name: MACQUARIE ISLAND Lat: -54.50 Lon: 158.94 Height: 6.0 m
Data from the previous 72 hours. | See also: Recent months at Macquarie Island
Date/Time
EST
Temp
°C
App
Temp
°C
Dew
Point
Rel
Hum
%
Delta-T
°C
Wind Press
QNH
hPa
Press
MSL
hPa
Rain
since 9 am
mm
Dir
 
Spd
km/h
Gust
km/h
Spd
kts
Gust
kts
17/05:30pm 5.8 -4.2 4.1 89 0.7 N 46 56 25 30 997.5 - 1.2
17/05:00pm 5.7 -4.3 4.2 90 0.6 N 46 54 25 29 997.9 - 1.2
17/04:30pm 5.7 -4.3 4.3 91 0.6 N 46 56 25 30 998.1 - 1.2
17/04:00pm 5.6 -4.8 4.2 91 0.6 N 48 56 26 30 998.4 - 1.2
17/03:30pm 5.6 -4.3 4.6 93 0.4 N 46 54 25 29 998.7 - 1.2
17/03:00pm 5.7 -3.9 4.5 92 0.5 N 44 50 24 27 999.0 999.3 1.2
17/02:30pm 5.9 -3.5 4.7 92 0.5 N 43 50 23 27 999.3 - 1.2
17/02:00pm 5.7 -2.9 4.7 93 0.4 NNW 39 46 21 25 999.7 - 1.2
17/01:30pm 5.8 -2.0 4.8 93 0.4 NNW 35 41 19 22 1000.1 - 1.2
17/01:00pm 5.7 -1.7 5.0 95 0.3 NNW 33 39 18 21 1000.4 - 1.2
17/12:30pm 5.7 -3.2 5.0 95 0.3 NNW 41 46 22 25 1000.7 - 1.2
17/12:00pm 5.6 -3.3 4.9 95 0.3 NNW 41 46 22 25 1001.0 1001.3 0.8
17/11:30am 5.6 -2.6 4.9 95 0.3 NNW 37 43 20 23 1001.4 - 0.6
17/11:00am 5.7 -1.7 5.0 95 0.3 NNW 33 39 18 21 1001.8 - 0.2
17/10:30am 5.6 -2.2 4.9 95 0.3 NNW 35 41 19 22 1002.0 - 0.2
17/10:00am 5.5 -1.0 4.6 94 0.4 N 28 33 15 18 1002.5 - 0.0
17/09:30am 5.7 0.9 4.8 94 0.4 N 19 28 10 15 1002.9 - 0.0
17/09:00am 5.1 2.1 4.1 93 0.4 N 9 13 5 7 1003.4 1003.7 2.0
17/08:30am 4.4 1.2 3.2 92 0.5 NNW 9 11 5 6 1003.8 - 1.8
17/08:00am 4.2 1.0 2.9 91 0.5 N 9 11 5 6 1004.0 - 1.6
17/07:30am 4.0 0.7 2.5 90 0.6 NNW 9 11 5 6 1004.2 - 1.6
17/07:00am 3.9 0.2 2.6 91 0.5 NNW 11 13 6 7 1004.2 - 1.6
17/06:30am 3.7 0.0 2.5 92 0.5 NNW 11 13 6 7 1004.1 - 1.6
17/06:00am 3.6 -0.5 2.4 92 0.5 N 13 15 7 8 1004.2 1004.5 1.6
17/05:30am 3.7 -1.1 2.5 92 0.5 WNW 17 20 9 11 1004.2 - 1.6
17/05:00am 3.7 -1.1 2.5 92 0.5 W 17 22 9 12 1004.0 - 1.4
17/04:30am 3.7 -2.5 2.2 90 0.6 WSW 24 33 13 18 1004.0 - 1.2
17/04:00am 4.0 -2.9 2.8 92 0.5 W 28 35 15 19 1003.9 - 0.8
17/03:30am 4.4 -2.3 3.7 95 0.3 W 28 33 15 18 1003.9 - 0.8
17/03:10am 5.1 -2.8 4.5 96 0.3 NNW 35 39 19 21 1003.6 - 0.4
17/03:07am 5.1 -3.1 4.5 96 0.3 N 37 41 20 22 1003.6 - 0.4
17/03:00am 5.2 -2.7 4.6 96 0.3 NNW 35 43 19 23 1003.6 1003.9 0.2
17/02:30am 5.1 -2.4 4.4 95 0.3 NNW 33 43 18 23 1003.5 - 0.0
17/02:00am 5.2 -2.7 4.3 94 0.4 NNW 35 44 19 24 1003.7 - 0.0
17/01:30am 5.2 -2.3 4.2 93 0.4 NNW 33 43 18 23 1003.8 - 0.0
17/01:00am 5.3 -2.3 4.1 92 0.5 NNW 33 41 18 22 1003.9 - 0.0
17/12:30am 5.3 -2.2 4.3 93 0.4 NNW 33 39 18 21 1004.0 - 0.0
17/12:00am 5.1 -2.5 4.1 93 0.4 NNW 33 39 18 21 1004.0 1004.3 0.0
 
Date/Time
EST
Temp
°C
App
Temp
°C
Dew
Point
Rel
Hum
%
Delta-T
°C
Wind Press
QNH
hPa
Press
MSL
hPa
Rain
since 9 am
mm
Dir
 
Spd
km/h
Gust
km/h
Spd
kts
Gust
kts
16/11:30pm 5.2 -2.2 4.0 92 0.5 NNW 32 44 17 24 1004.2 - 0.0
16/11:00pm 5.2 -2.4 4.0 92 0.5 NNW 33 39 18 21 1004.3 - 0.0
16/10:30pm 5.2 -2.2 4.0 92 0.5 NNW 32 39 17 21 1004.6 - 0.0
16/10:00pm 5.1 -2.5 3.9 92 0.5 NNW 33 41 18 22 1004.6 - 0.0
16/09:30pm 5.1 -2.5 3.8 91 0.5 NNW 33 39 18 21 1004.8 - 0.0
16/09:00pm 5.2 -2.3 3.7 90 0.6 NNW 32 39 17 21 1004.9 1005.2 0.0
16/08:30pm 5.2 -2.9 3.5 89 0.7 NNW 35 41 19 22 1005.0 - 0.0
16/08:00pm 5.1 -3.0 3.3 88 0.7 NNW 35 43 19 23 1004.9 - 0.0
16/07:30pm 5.1 -2.4 3.3 88 0.7 NNW 32 39 17 21 1005.0 - 0.0
16/07:00pm 5.0 -2.6 2.9 86 0.9 NNW 32 43 17 23 1004.9 - 0.0
16/06:30pm 5.0 -2.3 2.5 84 1.0 NNW 30 39 16 21 1005.0 - 0.0
16/06:00pm 4.9 -2.8 2.4 84 1.0 NNW 32 41 17 22 1005.0 1005.3 0.0
16/05:50pm 4.9 -3.4 2.1 82 1.1 NNW 35 41 19 22 1005.0 - 0.0
16/05:44pm 4.8 -4.3 1.8 81 1.2 N 39 41 21 22 1005.0 - 0.0
16/05:30pm 4.7 -3.0 2.1 83 1.0 NNW 32 39 17 21 1004.9 - 0.0
16/05:00pm 4.5 -3.3 1.7 82 1.1 NNW 32 41 17 22 1004.8 - 0.0
16/04:30pm 4.4 -4.0 1.4 81 1.2 NNW 35 43 19 23 1004.7 - 0.0
16/04:23pm 4.4 -4.0 1.4 81 1.2 NNW 35 43 19 23 1004.7 - 0.0
16/04:20pm 4.4 -4.7 1.6 82 1.1 N 39 43 21 23 1004.7 - 0.0
16/04:17pm 4.4 -5.2 1.4 81 1.2 NNW 41 44 22 24 1004.7 - 0.0
16/04:12pm 4.4 -4.7 1.8 83 1.0 N 39 41 21 22 1004.7 - 0.0
16/04:10pm 4.3 -4.5 1.5 82 1.1 NW 37 43 20 23 1004.7 - 0.0
16/04:01pm 4.3 -5.2 2.0 85 0.9 N 41 43 22 23 1004.7 - 0.0
16/04:00pm 4.3 -4.8 2.0 85 0.9 NNW 39 43 21 23 1004.7 - 0.0
16/03:59pm 4.4 -4.3 2.3 86 0.8 NW 37 43 20 23 1004.7 - 0.0
16/03:30pm 4.2 -5.3 1.7 84 1.0 N 41 44 22 24 1004.7 - 0.0
16/03:25pm 4.2 -5.3 1.7 84 1.0 N 41 44 22 24 1004.7 - 0.0
16/03:17pm 4.3 -5.2 1.8 84 1.0 NNE 41 43 22 23 1004.8 - 0.0
16/03:12pm 4.3 -4.8 1.7 83 1.0 NNW 39 41 21 22 1004.8 - 0.0
16/03:00pm 4.2 -4.9 1.7 84 1.0 N 39 44 21 24 1004.9 1005.2 0.0
16/02:51pm 4.4 -4.3 1.8 83 1.0 N 37 41 20 22 1004.9 - 0.0
16/02:30pm 4.2 -3.8 1.4 82 1.1 NNW 33 39 18 21 1005.0 - 0.0
16/02:00pm 4.2 -3.8 1.4 82 1.1 NNW 33 44 18 24 1005.1 - 0.0
16/01:30pm 4.1 -5.1 1.1 81 1.2 NNW 39 46 21 25 1005.3 - 0.0
16/01:20pm 4.0 -4.9 0.9 80 1.2 NNW 37 44 20 24 1005.3 - 0.0
16/01:18pm 4.0 -5.3 0.9 80 1.2 N 39 44 21 24 1005.3 - 0.0
16/01:00pm 4.2 -4.7 0.5 77 1.4 NNW 37 44 20 24 1005.4 - 0.0
16/12:50pm 4.4 -4.6 0.4 75 1.5 NNW 37 43 20 23 1005.4 - 0.0
16/12:47pm 4.4 -4.9 0.6 76 1.5 NNE 39 43 21 23 1005.4 - 0.0
16/12:30pm 3.9 -5.1 -0.1 75 1.5 NNW 37 43 20 23 1005.5 - 0.0
16/12:00pm 3.9 -4.4 -0.3 74 1.6 NNW 33 41 18 22 1005.6 1005.9 0.0
16/11:30am 4.3 -4.2 0.6 77 1.4 NNW 35 43 19 23 1005.8 - 0.0
16/11:22am 3.9 -4.2 -0.1 75 1.5 NW 32 39 17 21 1005.9 - 0.0
16/11:00am 3.8 -5.2 -0.2 75 1.5 N 37 43 20 23 1006.1 - 0.0
16/10:59am 3.9 -5.5 0.1 76 1.4 N 39 43 21 23 1006.1 - 0.0
16/10:57am 3.7 -5.0 -0.3 75 1.5 NNW 35 41 19 22 1006.1 - 0.0
16/10:52am 3.6 -6.2 -0.4 75 1.5 NNE 41 46 22 25 1006.2 - 0.0
16/10:37am 3.6 -4.7 -0.2 76 1.4 NNW 33 41 18 22 1006.2 - 0.0
16/10:35am 3.6 -5.8 -0.2 76 1.4 N 39 43 21 23 1006.2 - 0.0
16/10:32am 3.4 -6.1 -0.8 74 1.5 NNW 39 44 21 24 1006.3 - 0.0
16/10:30am 3.7 -5.7 0.2 78 1.3 N 39 44 21 24 1006.3 - 0.0
16/10:02am 3.4 -4.9 -0.1 78 1.3 NNW 33 39 18 21 1006.4 - 0.0
16/10:00am 3.3 -6.2 -0.7 75 1.5 N 39 41 21 22 1006.4 - 0.0
16/09:59am 3.3 -6.2 -0.7 75 1.5 NNE 39 41 21 22 1006.4 - 0.0
16/09:54am 3.4 -4.7 -0.6 75 1.5 NNW 32 39 17 21 1006.5 - 0.0
16/09:52am 3.3 -5.9 -1.1 73 1.6 N 37 41 20 22 1006.5 - 0.0
16/09:45am 3.3 -5.5 -0.9 74 1.5 NNW 35 39 19 21 1006.7 - 0.0
16/09:43am 3.4 -5.7 -0.6 75 1.5 N 37 43 20 23 1006.7 - 0.0
16/09:30am 3.2 -5.0 -1.0 74 1.5 NNW 32 41 17 22 1006.7 - 0.0
16/09:00am 3.0 -5.3 -1.4 73 1.6 NNW 32 39 17 21 1006.9 1007.2 0.0
16/08:30am 2.6 -5.9 -1.7 73 1.5 N 33 37 18 20 1006.9 - 0.0
16/08:00am 2.5 -6.4 -1.7 74 1.5 N 35 39 19 21 1007.1 - 0.0
16/07:30am 2.4 -5.1 -1.7 74 1.4 NNW 28 32 15 17 1007.2 - 0.0
16/07:00am 2.4 -5.6 -2.1 72 1.6 NNW 30 35 16 19 1007.2 - 0.0
16/06:30am 2.7 -4.8 -1.1 76 1.4 NNW 28 33 15 18 1007.2 - 0.0
16/06:00am 2.4 -4.4 -1.7 74 1.4 NNW 24 32 13 17 1007.3 1007.6 0.0
16/05:30am 2.2 -3.9 -2.1 73 1.5 NNW 20 26 11 14 1007.3 - 0.0
16/05:00am 2.3 -3.6 -1.0 79 1.2 N 20 24 11 13 1007.3 - 0.0
16/04:30am 2.1 -3.9 -1.2 79 1.2 NNE 20 24 11 13 1007.3 - 0.0
16/04:00am 2.2 -3.2 -1.4 77 1.3 NNW 17 20 9 11 1007.5 - 0.0
16/03:30am 2.2 -4.1 -1.2 78 1.2 NNW 22 24 12 13 1007.5 - 0.0
16/03:00am 2.2 -3.6 -1.4 77 1.3 NNW 19 20 10 11 1007.4 1007.7 0.0
16/02:30am 1.6 -3.7 -0.8 84 0.9 W 17 20 9 11 1007.6 - 0.0
16/02:00am 1.6 -1.7 -1.3 81 1.0 NW 6 9 3 5 1007.7 - 0.0
16/01:30am 1.5 -2.8 -1.4 81 1.0 WNW 11 19 6 10 1007.9 - 0.0
16/01:00am 1.3 -1.7 -1.6 81 1.0 WSW 4 7 2 4 1008.1 - 0.0
16/12:30am 1.1 -2.2 -1.6 82 0.9 SSW 6 7 3 4 1008.4 - 0.0
16/12:00am 1.4 -2.5 -1.3 82 1.0 W 9 13 5 7 1008.6 1008.9 0.0
 
Date/Time
EST
Temp
°C
App
Temp
°C
Dew
Point
Rel
Hum
%
Delta-T
°C
Wind Press
QNH
hPa
Press
MSL
hPa
Rain
since 9 am
mm
Dir
 
Spd
km/h
Gust
km/h
Spd
kts
Gust
kts
15/11:30pm 1.5 -0.8 -2.1 77 1.2 CALM 0 0 0 0 1008.6 - 0.0
15/11:00pm 1.5 -1.2 -2.1 77 1.2 SSW 2 7 1 4 1008.8 - 0.0
15/10:30pm 1.8 -2.1 -1.6 78 1.2 S 9 13 5 7 1008.9 - 0.0
15/10:00pm 1.9 -2.4 -1.3 79 1.1 SSE 11 15 6 8 1008.8 - 0.0
15/09:30pm 1.8 -2.1 -1.8 77 1.3 S 9 11 5 6 1009.1 - 0.0
15/09:00pm 2.0 -3.0 -1.2 79 1.1 SE 15 19 8 10 1009.1 1009.4 0.0
15/08:30pm 1.9 -3.1 -1.3 79 1.1 SE 15 19 8 10 1009.2 - 0.0
15/08:00pm 2.0 -3.0 -1.1 80 1.1 SE 15 20 8 11 1009.3 - 0.0
15/07:30pm 2.0 -3.3 -0.9 81 1.0 SE 17 20 9 11 1009.2 - 0.0
15/07:00pm 1.9 -4.0 -1.0 81 1.0 SE 20 26 11 14 1009.2 - 0.0
15/06:30pm 1.9 -4.4 -0.8 82 1.0 SSE 22 28 12 15 1009.1 - 0.0
15/06:00pm 1.9 -4.8 -0.8 82 1.0 SSE 24 30 13 16 1009.1 1009.4 0.0
15/05:30pm 2.0 -5.0 -0.7 82 1.0 SSE 26 32 14 17 1009.0 - 0.0
15/05:00pm 2.1 -4.6 -0.8 81 1.0 SE 24 30 13 16 1008.9 - 0.0
15/04:30pm 2.3 -4.4 -0.8 80 1.1 SSE 24 32 13 17 1008.8 - 0.0
15/04:00pm 2.5 -4.2 -0.9 78 1.2 SSE 24 28 13 15 1008.7 - 0.0
15/03:30pm 2.9 -3.4 -1.3 74 1.5 SE 22 28 12 15 1008.5 - 0.0
15/03:00pm 2.7 -4.0 -1.1 76 1.4 SSE 24 28 13 15 1008.5 1008.8 0.0
15/02:30pm 2.7 -4.4 -1.3 75 1.4 SE 26 33 14 18 1008.3 - 0.0
15/02:00pm 3.0 -3.3 -0.8 76 1.4 SSE 22 28 12 15 1008.4 - 0.0
15/01:30pm 2.8 -4.0 -1.5 73 1.5 SE 24 32 13 17 1008.4 - 0.0
15/01:00pm 3.3 -3.7 -0.7 75 1.5 SE 26 32 14 17 1008.5 - 0.0
15/12:30pm 3.0 -4.1 -1.0 75 1.4 SE 26 32 14 17 1008.7 - 0.0
15/12:00pm 2.9 -4.6 -1.1 75 1.4 SE 28 35 15 19 1008.7 1009.0 0.0
15/11:30am 2.8 -4.6 -1.0 76 1.4 SE 28 33 15 18 1009.0 - 0.0
15/11:00am 3.0 -4.1 -1.0 75 1.4 SE 26 32 14 17 1009.0 - 0.0
15/10:30am 3.0 -4.4 -0.8 76 1.4 SE 28 35 15 19 1009.1 - 0.0
15/10:00am 2.6 -4.9 -1.4 75 1.4 SE 28 35 15 19 1009.1 - 0.0
15/09:30am 2.4 -5.5 -1.2 77 1.3 SE 30 35 16 19 1009.1 - 0.0
15/09:00am 2.1 -5.4 -1.5 77 1.3 SE 28 37 15 20 1009.2 1009.5 0.0
15/08:30am 1.9 -6.4 -1.5 78 1.2 SE 32 41 17 22 1009.1 - 0.0
15/08:00am 1.7 -6.6 -1.5 79 1.1 SE 32 41 17 22 1008.9 - 0.0
15/07:30am 1.6 -6.7 -1.6 79 1.1 SE 32 39 17 21 1008.7 - 0.0
15/07:00am 1.5 -6.8 -1.7 79 1.1 SE 32 41 17 22 1008.5 - 0.0
15/06:30am 1.4 -6.9 -1.8 79 1.1 SE 32 41 17 22 1008.4 - 0.0
15/06:00am 1.3 -7.6 -1.9 79 1.1 SE 35 43 19 23 1008.1 1008.4 0.0
15/05:30am 1.3 -7.2 -1.9 79 1.1 SE 33 39 18 21 1008.0 - 0.0
15/05:00am 1.4 -7.1 -1.7 80 1.1 SE 33 41 18 22 1008.0 - 0.0
15/04:30am 1.1 -7.3 -2.1 79 1.1 SE 32 39 17 21 1007.8 - 0.0
15/04:00am 0.9 -7.7 -2.3 79 1.1 SE 33 41 18 22 1007.8 - 0.0
15/03:30am 0.8 -7.6 -2.4 79 1.1 SE 32 37 17 20 1007.5 - 0.0
15/03:00am 0.9 -7.5 -2.3 79 1.2 SE 32 37 17 20 1007.6 1007.9 0.0
15/02:30am 0.8 -7.2 -2.6 78 1.2 SE 30 39 16 21 1007.8 - 0.0
15/02:00am 0.7 -7.7 -2.7 78 1.2 SE 32 39 17 21 1007.9 - 0.0
15/01:30am 0.8 -7.6 -2.4 79 1.1 SE 32 43 17 23 1008.0 - 0.0
15/01:00am 0.5 -8.1 -2.9 78 1.2 ESE 33 41 18 22 1008.0 - 0.0
15/12:30am 0.6 -8.4 -2.8 78 1.2 ESE 35 44 19 24 1007.9 - 0.0
15/12:00am 0.6 -8.4 -3.0 77 1.2 ESE 35 44 19 24 1007.9 1008.2 0.0
 
Date/Time
EST
Temp
°C
App
Temp
°C
Dew
Point
Rel
Hum
%
Delta-T
°C
Wind Press
QNH
hPa
Press
MSL
hPa
Rain
since 9 am
mm
Dir
 
Spd
km/h
Gust
km/h
Spd
kts
Gust
kts
14/11:30pm 0.7 -7.9 -2.7 78 1.2 ESE 33 44 18 24 1007.8 - 0.0
14/11:00pm 0.7 -7.9 -2.7 78 1.2 E 33 44 18 24 1007.8 - 0.0
14/10:30pm 0.6 -8.8 -3.0 77 1.2 ESE 37 48 20 26 1007.8 - 0.0
14/10:00pm 0.9 -8.1 -2.7 77 1.3 ESE 35 43 19 23 1008.0 - 0.0
14/09:30pm 0.8 -8.2 -3.1 75 1.4 ESE 35 44 19 24 1008.0 - 0.0
14/09:00pm 0.9 -7.8 -3.0 75 1.4 E 33 44 18 24 1007.9 1008.2 0.0
14/08:30pm 1.0 -7.6 -2.9 75 1.4 ESE 33 43 18 23 1007.8 - 0.0
14/08:00pm 1.1 -8.3 -2.6 76 1.3 ESE 37 46 20 25 1007.7 - 0.0
14/07:30pm 1.0 -8.0 -2.9 75 1.4 ESE 35 48 19 26 1007.6 - 0.0
14/07:00pm 0.7 -8.0 -3.4 74 1.4 ESE 33 41 18 22 1007.6 - 0.0
14/06:42pm 0.7 -8.4 -3.4 74 1.4 ESE 35 54 19 29 1007.5 - 0.0
14/06:30pm 0.9 -8.1 -3.0 75 1.4 ESE 35 43 19 23 1007.5 - 0.0
14/06:00pm 0.8 -7.3 -3.3 74 1.4 ESE 30 35 16 19 1007.5 1007.8 0.0

Other Formats:

Comma delimited format used in spreadsheet applications
http://www.bom.gov.au/fwo/IDT60801/IDT60801.94998.axf

JavaScript Object Notation format (JSON) in row-major order
http://www.bom.gov.au/fwo/IDT60801/IDT60801.94998.json